createdAt,value
2023-01-07T00:04:44.505Z,979.98
2023-01-07T00:09:44.467Z,979.99
2023-01-07T00:14:44.375Z,979.90
2023-01-07T00:19:44.331Z,979.89
2023-01-07T00:24:44.252Z,979.93
2023-01-07T00:29:44.205Z,979.95
2023-01-07T00:34:44.122Z,979.88
2023-01-07T00:39:44.074Z,979.82
2023-01-07T00:44:44.020Z,979.75
2023-01-07T00:49:43.944Z,979.76
2023-01-07T00:54:43.875Z,979.75
2023-01-07T00:59:43.803Z,979.74
2023-01-07T01:04:43.743Z,979.67
2023-01-07T01:09:43.682Z,979.74
2023-01-07T01:14:43.654Z,979.71
2023-01-07T01:19:43.554Z,979.73
2023-01-07T01:24:43.486Z,979.72
2023-01-07T01:29:43.425Z,979.73
2023-01-07T01:34:43.356Z,979.70
2023-01-07T01:39:43.306Z,979.72
2023-01-07T01:44:43.228Z,979.76
2023-01-07T01:49:43.188Z,979.66
2023-01-07T01:54:43.103Z,979.55
2023-01-07T01:59:43.053Z,979.53
2023-01-07T02:04:42.976Z,979.49
2023-01-07T02:09:42.919Z,979.45
2023-01-07T02:14:42.877Z,979.36
2023-01-07T02:19:42.797Z,979.34
2023-01-07T02:24:42.736Z,979.30
2023-01-07T02:29:42.671Z,979.29
2023-01-07T02:34:42.594Z,979.24
2023-01-07T02:39:42.540Z,979.21
2023-01-07T02:44:42.471Z,979.23
2023-01-07T02:49:42.404Z,979.23
2023-01-07T02:54:42.357Z,979.18
2023-01-07T02:59:42.291Z,979.11
2023-01-07T03:04:42.216Z,979.14
2023-01-07T03:09:42.155Z,979.11
2023-01-07T03:14:42.132Z,979.10
2023-01-07T03:19:42.014Z,979.04
2023-01-07T03:24:41.964Z,978.97
2023-01-07T03:29:41.892Z,978.93
2023-01-07T03:34:41.903Z,978.87
2023-01-07T03:39:41.782Z,978.82
2023-01-07T03:44:41.710Z,978.82
2023-01-07T03:49:41.644Z,978.73
2023-01-07T03:54:41.572Z,978.59
2023-01-07T03:59:41.535Z,978.57
2023-01-07T04:04:41.455Z,978.50
2023-01-07T04:09:41.388Z,978.38
2023-01-07T04:14:41.329Z,978.43
2023-01-07T04:19:41.274Z,978.38
2023-01-07T04:24:41.198Z,978.30
2023-01-07T04:29:41.135Z,978.29
2023-01-07T04:34:41.067Z,978.21
2023-01-07T04:39:41.016Z,978.15
2023-01-07T04:44:40.943Z,978.08
2023-01-07T04:49:40.883Z,978.07
2023-01-07T04:54:40.809Z,978.05
2023-01-07T04:59:40.765Z,978.05
2023-01-07T05:04:40.797Z,978.03
2023-01-07T05:09:40.653Z,978.07
2023-01-07T05:14:40.557Z,978.03
2023-01-07T05:19:40.517Z,977.99
2023-01-07T05:24:40.417Z,977.94
2023-01-07T05:29:40.378Z,977.93
2023-01-07T05:34:40.301Z,977.85
2023-01-07T05:39:40.237Z,977.78
2023-01-07T05:44:40.170Z,977.79
2023-01-07T05:49:40.112Z,977.75
2023-01-07T05:54:40.050Z,977.68
2023-01-07T05:59:39.983Z,977.62
2023-01-07T06:04:39.955Z,977.69
2023-01-07T06:09:39.852Z,977.64
2023-01-07T06:14:39.791Z,977.59
2023-01-07T06:19:39.725Z,977.61
2023-01-07T06:24:39.660Z,977.68
2023-01-07T06:29:39.642Z,977.61
2023-01-07T06:34:39.533Z,977.57
2023-01-07T06:39:39.473Z,977.61
2023-01-07T06:44:39.416Z,977.60
2023-01-07T06:49:39.349Z,977.57
2023-01-07T06:54:39.282Z,977.58
2023-01-07T06:59:39.232Z,977.53
2023-01-07T07:04:39.157Z,977.44
2023-01-07T07:09:39.103Z,977.39
2023-01-07T07:14:39.054Z,977.42
2023-01-07T07:19:38.993Z,977.41
2023-01-07T07:24:38.930Z,977.33
2023-01-07T07:29:38.860Z,977.31
2023-01-07T07:34:38.795Z,977.25
2023-01-07T07:39:38.718Z,977.22
2023-01-07T07:44:38.691Z,977.19
2023-01-07T07:49:38.607Z,977.23
2023-01-07T07:54:38.548Z,977.19
2023-01-07T07:59:38.496Z,977.16
2023-01-07T08:04:38.403Z,977.19
2023-01-07T08:09:38.368Z,977.10
2023-01-07T08:14:38.282Z,976.99
2023-01-07T08:19:38.220Z,976.92
2023-01-07T08:24:38.156Z,976.87
2023-01-07T08:29:38.087Z,976.90
2023-01-07T08:34:38.016Z,976.84
2023-01-07T08:39:37.993Z,976.74
2023-01-07T08:44:37.901Z,976.77
2023-01-07T08:49:37.920Z,976.74
2023-01-07T08:54:37.757Z,976.72
2023-01-07T08:59:37.738Z,976.76
2023-01-07T09:04:37.689Z,976.68
2023-01-07T09:09:37.635Z,976.65
2023-01-07T09:14:37.516Z,976.65
2023-01-07T09:19:37.450Z,976.55
2023-01-07T09:24:37.370Z,976.52
2023-01-07T09:29:37.363Z,976.61
2023-01-07T09:34:37.244Z,976.61
2023-01-07T09:39:37.197Z,976.57
2023-01-07T09:44:37.136Z,976.57
2023-01-07T09:49:37.148Z,976.51
2023-01-07T09:54:37.008Z,976.46
2023-01-07T09:59:36.954Z,976.44
2023-01-07T10:04:36.882Z,976.36
2023-01-07T10:09:36.816Z,976.32
2023-01-07T10:14:36.753Z,976.25
2023-01-07T10:19:36.694Z,976.15
2023-01-07T10:24:36.631Z,976.03
2023-01-07T10:29:36.568Z,975.94
2023-01-07T10:34:36.495Z,975.92
2023-01-07T10:39:36.439Z,975.82
2023-01-07T10:44:36.446Z,975.73
2023-01-07T10:49:36.304Z,975.63
2023-01-07T10:54:36.238Z,975.55
2023-01-07T10:59:36.227Z,975.54
2023-01-07T11:04:36.120Z,975.50
2023-01-07T11:09:36.059Z,975.36
2023-01-07T11:14:35.987Z,975.30
2023-01-07T11:19:35.950Z,975.21
2023-01-07T11:24:35.885Z,975.15
2023-01-07T11:29:35.819Z,975.06
2023-01-07T11:34:35.730Z,975.06
2023-01-07T11:39:35.685Z,974.92
2023-01-07T11:44:35.621Z,974.84
2023-01-07T11:49:35.571Z,974.75
2023-01-07T11:54:35.475Z,974.63
2023-01-07T11:59:35.447Z,974.53
2023-01-07T12:04:35.343Z,974.48
2023-01-07T12:09:35.328Z,974.35
2023-01-07T12:14:35.221Z,974.27
2023-01-07T12:19:36.363Z,974.28
2023-01-07T12:24:35.084Z,974.23
2023-01-07T12:29:35.063Z,974.07
2023-01-07T12:34:34.968Z,974.09
2023-01-07T12:39:34.904Z,973.97
2023-01-07T12:44:34.825Z,973.91
2023-01-07T12:49:34.772Z,973.81
2023-01-07T12:54:34.695Z,973.74
2023-01-07T12:59:46.120Z,973.68
2023-01-07T13:04:35.605Z,973.66
2023-01-07T13:09:34.554Z,973.62
2023-01-07T13:14:34.458Z,973.54
2023-01-07T13:19:34.387Z,973.46
2023-01-07T13:24:54.925Z,973.48
2023-01-07T13:29:35.248Z,973.50
2023-01-07T13:34:34.183Z,973.62
2023-01-07T13:39:34.128Z,973.51
2023-01-07T13:44:34.086Z,973.49
2023-01-07T13:49:34.026Z,973.49
2023-01-07T13:54:33.963Z,973.37
2023-01-07T13:59:33.882Z,973.20
2023-01-07T14:04:33.804Z,973.13
2023-01-07T14:09:33.740Z,973.17
2023-01-07T14:14:33.678Z,973.19
2023-01-07T14:19:33.611Z,973.16
2023-01-07T14:24:33.563Z,973.08
2023-01-07T14:29:33.550Z,973.10
2023-01-07T14:34:33.554Z,973.18
2023-01-07T14:39:33.394Z,973.20
2023-01-07T14:44:33.295Z,973.17
2023-01-07T14:49:33.235Z,973.18
2023-01-07T14:54:33.521Z,973.14
2023-01-07T14:59:33.117Z,973.13
2023-01-07T15:04:33.045Z,973.10
2023-01-07T15:09:32.986Z,973.08
2023-01-07T15:14:32.929Z,973.07
2023-01-07T15:19:32.880Z,972.98
2023-01-07T15:24:32.792Z,973.00
2023-01-07T15:29:32.736Z,973.03
2023-01-07T15:34:32.669Z,973.04
2023-01-07T15:39:32.619Z,973.02
2023-01-07T15:44:32.539Z,972.98
2023-01-07T15:49:32.467Z,972.93
2023-01-07T15:54:32.434Z,972.91
2023-01-07T15:59:33.199Z,972.77
2023-01-07T16:04:32.468Z,972.74
2023-01-07T16:09:34.169Z,972.80
2023-01-07T16:14:32.183Z,972.81
2023-01-07T16:19:32.105Z,972.84
2023-01-07T16:24:32.056Z,972.86
2023-01-07T16:29:31.974Z,972.96
2023-01-07T16:34:31.902Z,972.94
2023-01-07T16:39:31.852Z,972.96
2023-01-07T16:44:31.778Z,972.93
2023-01-07T16:49:31.692Z,972.95
2023-01-07T16:54:31.633Z,972.85
2023-01-07T16:59:31.573Z,972.82
2023-01-07T17:04:31.494Z,972.91
2023-01-07T17:09:31.436Z,972.83
2023-01-07T17:14:31.364Z,972.84
2023-01-07T17:19:31.318Z,972.85
2023-01-07T17:24:31.250Z,972.91
2023-01-07T17:29:31.197Z,972.88
2023-01-07T17:34:31.138Z,972.97
2023-01-07T17:39:31.106Z,972.94
2023-01-07T17:44:30.995Z,973.00
2023-01-07T17:49:30.934Z,973.09
2023-01-07T17:54:30.858Z,973.11
2023-01-07T17:59:30.819Z,973.23
2023-01-07T18:04:30.740Z,973.14
2023-01-07T18:09:30.695Z,973.13
2023-01-07T18:14:30.630Z,973.06
2023-01-07T18:19:30.577Z,972.93
2023-01-07T18:24:30.513Z,972.83
2023-01-07T18:29:30.452Z,972.78
2023-01-07T18:34:30.393Z,972.78
2023-01-07T18:39:30.346Z,972.88
2023-01-07T18:44:30.283Z,972.70
2023-01-07T18:49:30.276Z,972.59
2023-01-07T18:54:30.168Z,972.61
2023-01-07T18:59:30.112Z,972.59
2023-01-07T19:04:30.100Z,972.60
2023-01-07T19:09:29.999Z,972.58
2023-01-07T19:14:29.934Z,972.60
2023-01-07T19:19:34.313Z,972.59
2023-01-07T19:24:30.820Z,972.50
2023-01-07T19:29:29.763Z,972.52
2023-01-07T19:34:29.712Z,972.53
2023-01-07T19:39:29.655Z,972.49
2023-01-07T19:44:29.583Z,972.52
2023-01-07T19:49:29.535Z,972.60
2023-01-07T19:54:29.471Z,972.63
2023-01-07T19:59:29.397Z,972.64
2023-01-07T20:04:29.361Z,972.67
2023-01-07T20:09:29.307Z,972.67
2023-01-07T20:14:29.252Z,972.62
2023-01-07T20:19:29.163Z,972.64
2023-01-07T20:24:29.123Z,972.67
2023-01-07T20:29:29.077Z,972.56
2023-01-07T20:34:29.022Z,972.63
2023-01-07T20:39:28.984Z,972.63
2023-01-07T20:44:28.920Z,972.65
2023-01-07T20:49:28.814Z,972.55
2023-01-07T20:54:28.762Z,972.53
2023-01-07T20:59:28.712Z,972.52
2023-01-07T21:04:28.652Z,972.40
2023-01-07T21:09:28.589Z,972.39
2023-01-07T21:14:28.546Z,972.34
2023-01-07T21:19:28.478Z,972.18
2023-01-07T21:24:28.407Z,972.30
2023-01-07T21:29:28.338Z,972.36
2023-01-07T21:34:28.292Z,972.28
2023-01-07T21:39:28.210Z,972.11
2023-01-07T21:44:28.172Z,972.13
2023-01-07T21:49:28.180Z,971.99
2023-01-07T21:54:28.044Z,971.94
2023-01-07T21:59:27.977Z,971.93
2023-01-07T22:04:27.992Z,972.12
2023-01-07T22:09:27.841Z,972.07
2023-01-07T22:14:27.777Z,971.98
2023-01-07T22:19:27.733Z,971.99
2023-01-07T22:24:27.666Z,971.91
2023-01-07T22:29:27.930Z,971.94
2023-01-07T22:34:27.565Z,971.99
2023-01-07T22:39:27.490Z,971.91
2023-01-07T22:44:27.433Z,971.82
2023-01-07T22:49:27.369Z,971.79
2023-01-07T22:54:27.323Z,971.72
2023-01-07T22:59:27.220Z,971.73
2023-01-07T23:04:27.175Z,971.65
2023-01-07T23:09:27.119Z,971.56
2023-01-07T23:14:27.068Z,971.52
2023-01-07T23:19:27.000Z,971.47
2023-01-07T23:24:26.921Z,971.28
2023-01-07T23:29:26.850Z,971.36
2023-01-07T23:34:26.833Z,971.37
2023-01-07T23:39:26.751Z,971.32
2023-01-07T23:44:26.683Z,971.34
2023-01-07T23:49:26.623Z,971.38
2023-01-07T23:54:26.556Z,971.37
2023-01-07T23:59:26.521Z,971.26
